AirNav   Phillips 66 Aviation Fuel
 
 892 users online  

D88 Pratt's Eastern Divide Airport
Sherman, New York, USA

GOING TO SHERMAN?


FAA INFORMATION EFFECTIVE 04 JANUARY 2018

Location

FAA Identifier: D88
Lat/Long: 42-09-00.2030N / 079-41-09.1720W
42-09.003383N / 079-41.152867W
42.1500564 / -79.6858811
(estimated)
Elevation: 1640 ft. / 500 m (estimated)
Variation: 09W (1985)
From city: 4 miles W of SHERMAN, NY
(3 MI NE OF FINDLEY LAKE.)
Time zone: UTC -5 (UTC -4 during Daylight Saving Time)
Zip code: 14781

Airport Operations

Airport use: Open to the public
Activation date: 02/1961
Control tower: no
ARTCC: CLEVELAND CENTER
FSS: BUFFALO FLIGHT SERVICE STATION
NOTAMs facility: BUF (NOTAM-D service available)
Attendance: IREG
Wind indicator: yes
Segmented circle: no

Airport Communications

CTAF: 122.9
WX AWOS-3PT at JHW (19 nm E): 118.425 (716-664-6005)
  • CD THRU FLT SVCS 1-888-766-8267.

Nearby radio navigation aids

VOR radial/distance  VOR name  Freq  Var
JHWr272/25.2JAMESTOWN VOR/DME114.7007W
ERIr080/28.2ERIE VORTAC109.4006W
TDTr344/28.8TIDIOUTE VORTAC117.6009W

 
NDB name  Hdg/Dist  Freq  Var  ID
CORRY003/14.325810WORJ --- .-. .---
CASCADE094/18.737210WCQD -.-. --.- -..

Airport Services

Parking: hangars and tiedowns

Runway Information

Runway 8/26

Dimensions: 2600 x 75 ft. / 792 x 23 m
Surface: turf, in good condition
RUNWAY 8  RUNWAY 26
Traffic pattern: leftleft
Obstructions: 10 ft. road, 30 ft. from runway, 3:1 slope to clear
+28 FT PLINES RUNNING ALONG S SIDE OF HAZEN RD SIGHTED 115 FT L & 495 FT FM RY 08 END.
48 ft. trees, 240 ft. from runway, 78 ft. right of centerline, 5:1 slope to clear
RY 26, 37 FT TREES 195 FM THLD 85 FT R.

Airport Ownership and Management from official FAA records

Ownership: Privately-owned
Owner: DAVID & SYLVIA DANIELS
12553 STATION ROAD
NORTH EAST, PA 16428
Phone 814-725-5923
Manager: SYLVIA S. DANIELS
12553 STATION ROAD
NORTH EAST, PA 16428
Phone 814-725-5923

Airport Operational Statistics

Aircraft based on the field: 5
Single engine airplanes: 2
Ultralights: 3
    
Aircraft operations: 200/year *
50% transient general aviation
50% local general aviation
* for 12-month period ending 10 June 2015

Additional Remarks

ULTRALGT ON & INVOF ARPT.
THERE ARE 28 FT PLINES RUNNING ALONG S SIDE OF HAZEN RD SIGHTED 115 FT LEFT & 495 FT FM RY 08 END.
DEER ON & INVOF RY.
FOR IFR CLEARANCE CTC CLEVELAND ARTCC (ZOB) 127.075/292.175 OR CALL ZOB 440-774-0489.

Instrument Procedures

There are no published instrument procedures at D88.

Some nearby airports with instrument procedures:

8G2 - Corry-Lawrence Airport (15 nm S)
KJHW - Chautauqua County/Jamestown Airport (19 nm E)
KERI - Erie International Airport/Tom Ridge Field (22 nm W)
KDKK - Chautauqua County/Dunkirk Airport (28 nm NE)
6G1 - Titusville Airport (33 nm S)
 
Loc | Ops | Rwys | IFR | FBO | Links
Com | Nav | Svcs | Stats | Notes


 
Area around D88 (Pratt's Eastern Divide Airport)
 
Road maps at: MapQuest Bing Google
 
Aerial photo
WARNING: Photo may not be current or correct
Aerial photo of D88 (Pratt's Eastern Divide Airport)
Do you have a better or more recent aerial photo of Pratt's Eastern Divide Airport that you would like to share? If so, please send us your photo.

 
Sectional chart

 
Airport distance calculator
Flying to Pratt's Eastern Divide Airport? Find the distance to fly.

From to D88

Sunrise and sunset
Times for 21-Jan-2018
 Local
(UTC-5)
 Zulu
(UTC)
Morning civil twilight07:1212:12
Sunrise07:4212:42
Sunset17:1822:18
Evening civil twilight17:4822:48

Current date and time
Zulu (UTC)  22-Jan-2018 00:18:33
Local (UTC-5)  21-Jan-2018 19:18:33
 
METAR
8G2 
15nm S 
SuperAWOS
212355Z AUTO 25005KT 1/4SM FG 04/04 A3010
KJHW 
19nm E 
212356Z AUTO 18005KT 1/4SM -RA FG OVC002 03/03 A3004 RMK AO2 SLP193 P0000 60000 T00330028 10044 20028 50004 RVRNO
KERI 
22nm W 
212351Z 00000KT 6SM BR OVC013 06/04 A3005 RMK AO2 SLP182 T00560044 10061 20050 51006
KDKK 
28nm NE 
212353Z AUTO 06005KT 3SM HZ OVC011 07/02 A3007 RMK AO2 RAB13E23 SLP185 P0000 60000 T00720022 10156 20044 50006
CWPS 
29nm NW 
212300Z AUTO 03006KT 02/02 RMK AO1 SLP179 T00220017 51009
TAF
KJHW 
19nm E 
212133Z 2122/2218 19006KT 2SM BR OVC003 FM220600 17005KT 2SM -RA BR OVC007 FM221600 18011G23KT 2SM BR OVC025 AMD LTD TO CLD VIS AND WIND
KERI 
22nm W 
211957Z 2120/2218 19005KT 6SM BR SCT009 OVC040 FM220000 18005KT 2SM BR OVC009 FM220900 17005KT 3SM -RA BR OVC008 FM221700 18010KT 5SM BR VCSH OVC010
NOTAMs
Click for the latest NOTAMs
NOTAMs are issued by the DoD/FAA and will open in a separate window not controlled by AirNav.

 

 
 

Would you like to see your business listed on this page?

 If your business provides an interesting product or service to pilots, flight crews, aircraft, or users of the Pratt's Eastern Divide Airport, you should consider listing it here.  To start the listing process, click on the button below
 
Add a business
 

Other Pages about Pratt's Eastern Divide Airport

Update a link
 
Copyright © AirNav, LLC. All rights reserved. Privacy Policy  Contact